Terminal Aerodrome Forecast
Issued by NWS Wilmington, NC

Home | Current Version | Previous Version | Text Only | Print | Product List | Glossary On
Versions: 1 2 3 4 5 6 7 8 9 10 11 12 13
179
FTUS42 KILM 111207 CCA
TAFMYR
TAF COR
KMYR 111207Z 1112/1212 04007KT P6SM BKN050
     FM111500 08008KT P6SM SCT050
     FM120100 16008KT P6SM VCSH SCT020 BKN050
      TEMPO 1201/1205 3SM -RA BR BKN015
     FM120700 21005KT 4SM BR VCSH SCT008 SCT050 BKN090
     FM121000 21005KT 2SM BR BKN008=

USA.gov is the U.S. government's official web portal to all federal, state and local government web resources and services.